Hebei Shijiazhuang — VRIS2 — position and weather

sailwx.info

Track history (hours):
 
Tides and Currents Weather Stations Pressure Air Temp Water Temp Dewpoint Dewpoint Depression Visibility Wind Speed Wind Dir Waves Ship Positions

Hebei Shijiazhuang

Last reported at 2016-May-17 16:03 UTC. Time now 2016-May-29 05:46 UTC.
Position S 27°56' E 154°11'.
Warning: this ship's position is 11 days out of date.

Length 235 m.

Type: Cargo ship. MMSI: 477899000.

Date/timePositionNaut miles runAvg speedWind from/ knotsBaromVisibWave heightAir tempDewpointWater temp
2016-May-17 16:03S 27°56' E 154°11'281 9.5
2016-May-16 10:33S 32°26' E 152°42'9 8.5
2016-May-16 09:28S 32°34' E 152°36'9 9.8
2016-May-16 08:34S 32°40' E 152°28'1111.1
2016-May-16 07:34S 32°48' E 152°19'1111.4
2016-May-16 06:34S 32°56' E 152°09'1111.5
2016-May-16 05:34S 32°58' E 151°55'7 7.0
2016-May-16 04:33S 32°55' E 151°48'2 2.4
2016-May-16 03:33S 32°53' E 151°46'0 0.1
2016-May-16 01:19S 32°53' E 151°46'0 0.0
2016-May-16 00:25S 32°53' E 151°46'0 0.0
2016-May-15 23:31S 32°53' E 151°46'0 0.0
2016-May-15 22:28S 32°53' E 151°46'0 0.0
2016-May-15 21:28S 32°53' E 151°46'0 0.0
2016-May-15 20:31S 32°53' E 151°46'0 0.0
2016-May-15 19:31S 32°53' E 151°46'0 0.0
2016-May-15 18:31S 32°53' E 151°46'0 0.0
2016-May-15 17:25S 32°53' E 151°46'0 0.0
2016-May-15 16:31S 32°53' E 151°46'0 0.0
2016-May-15 15:31S 32°53' E 151°46'0 0.0
2016-May-15 14:31S 32°53' E 151°46'0 0.0
2016-May-15 13:31S 32°53' E 151°46'0 0.0
2016-May-15 12:31S 32°53' E 151°46'0 0.0
2016-May-15 11:31S 32°53' E 151°46'0 0.0
2016-May-15 10:25S 32°53' E 151°46'0 0.0
2016-May-15 09:31S 32°53' E 151°46'0 0.0
2016-May-15 08:31S 32°53' E 151°46'0 0.0
2016-May-15 07:34S 32°53' E 151°46'3 3.0
2016-May-15 06:34S 32°55' E 151°49'9 9.2
2016-May-15 05:34S 33°02' E 151°55'2 2.4
2016-May-15 04:34S 33°04' E 151°57'1 0.7
2016-May-15 03:33S 33°04' E 151°56'1 1.2
2016-May-15 02:33S 33°02' E 151°57'8 8.3
2016-May-15 01:34S 32°56' E 152°03'1110.5
2016-May-15 00:34S 32°51' E 152°14'8 8.4
2016-May-14 23:33S 32°46' E 152°22'1110.8
2016-May-14 22:33S 32°38' E 152°31'1110.8
2016-May-14 21:34S 32°30' E 152°40'1312.7
2016-May-14 20:34S 32°19' E 152°45'1312.6
2016-May-14 19:33S 32°07' E 152°51'1312.4
2016-May-14 18:30S 31°55' E 152°57'  
Track history (hours):
 
Tides and Currents Weather Stations Pressure Air Temp Water Temp Dewpoint Dewpoint Depression Visibility Wind Speed Wind Dir Waves Ship Positions

Hebei Shijiazhuang

Last reported at 2016-May-17 16:03 UTC. Time now 2016-May-29 05:46 UTC.
Position S 27°56' E 154°11'.
Warning: this ship's position is 11 days out of date.

Length 235 m.

Type: Cargo ship. MMSI: 477899000.

Date/timePositionNaut miles runAvg speedWind from/ knotsBaromVisibWave heightAir tempDewpointWater temp
2016-May-17 16:03S 27°56' E 154°11'281 9.5
2016-May-16 10:33S 32°26' E 152°42'9 8.5
2016-May-16 09:28S 32°34' E 152°36'9 9.8
2016-May-16 08:34S 32°40' E 152°28'1111.1
2016-May-16 07:34S 32°48' E 152°19'1111.4
2016-May-16 06:34S 32°56' E 152°09'1111.5
2016-May-16 05:34S 32°58' E 151°55'7 7.0
2016-May-16 04:33S 32°55' E 151°48'2 2.4
2016-May-16 03:33S 32°53' E 151°46'0 0.1
2016-May-16 01:19S 32°53' E 151°46'0 0.0
2016-May-16 00:25S 32°53' E 151°46'0 0.0
2016-May-15 23:31S 32°53' E 151°46'0 0.0
2016-May-15 22:28S 32°53' E 151°46'0 0.0
2016-May-15 21:28S 32°53' E 151°46'0 0.0
2016-May-15 20:31S 32°53' E 151°46'0 0.0
2016-May-15 19:31S 32°53' E 151°46'0 0.0
2016-May-15 18:31S 32°53' E 151°46'0 0.0
2016-May-15 17:25S 32°53' E 151°46'0 0.0
2016-May-15 16:31S 32°53' E 151°46'0 0.0
2016-May-15 15:31S 32°53' E 151°46'0 0.0
2016-May-15 14:31S 32°53' E 151°46'0 0.0
2016-May-15 13:31S 32°53' E 151°46'0 0.0
2016-May-15 12:31S 32°53' E 151°46'0 0.0
2016-May-15 11:31S 32°53' E 151°46'0 0.0
2016-May-15 10:25S 32°53' E 151°46'0 0.0
2016-May-15 09:31S 32°53' E 151°46'0 0.0
2016-May-15 08:31S 32°53' E 151°46'0 0.0
2016-May-15 07:34S 32°53' E 151°46'3 3.0
2016-May-15 06:34S 32°55' E 151°49'9 9.2
2016-May-15 05:34S 33°02' E 151°55'2 2.4
2016-May-15 04:34S 33°04' E 151°57'1 0.7
2016-May-15 03:33S 33°04' E 151°56'1 1.2
2016-May-15 02:33S 33°02' E 151°57'8 8.3
2016-May-15 01:34S 32°56' E 152°03'1110.5
2016-May-15 00:34S 32°51' E 152°14'8 8.4
2016-May-14 23:33S 32°46' E 152°22'1110.8
2016-May-14 22:33S 32°38' E 152°31'1110.8
2016-May-14 21:34S 32°30' E 152°40'1312.7
2016-May-14 20:34S 32°19' E 152°45'1312.6
2016-May-14 19:33S 32°07' E 152°51'1312.4
2016-May-14 18:30S 31°55' E 152°57'  

Dump ship's entire track history